sensor_id;sensor_type;location;lat;lon;timestamp;temperature;humidity
71206;SHT31;58935;54.498;18.544;2023-12-20T00:02:24;7.68;87.31
71206;SHT31;58935;54.498;18.544;2023-12-20T00:04:49;7.68;87.30
71206;SHT31;58935;54.498;18.544;2023-12-20T00:07:15;7.67;87.30
71206;SHT31;58935;54.498;18.544;2023-12-20T00:09:40;7.65;87.12
71206;SHT31;58935;54.498;18.544;2023-12-20T00:12:06;7.58;86.92
71206;SHT31;58935;54.498;18.544;2023-12-20T00:14:31;7.41;86.62
71206;SHT31;58935;54.498;18.544;2023-12-20T00:16:57;7.29;86.57
71206;SHT31;58935;54.498;18.544;2023-12-20T00:19:22;7.20;86.72
71206;SHT31;58935;54.498;18.544;2023-12-20T00:21:47;7.11;86.77
71206;SHT31;58935;54.498;18.544;2023-12-20T00:24:13;7.01;86.90
71206;SHT31;58935;54.498;18.544;2023-12-20T00:26:38;6.95;87.11
71206;SHT31;58935;54.498;18.544;2023-12-20T00:29:03;6.90;87.19
71206;SHT31;58935;54.498;18.544;2023-12-20T00:31:29;6.83;86.83
71206;SHT31;58935;54.498;18.544;2023-12-20T00:33:54;6.80;86.79
71206;SHT31;58935;54.498;18.544;2023-12-20T00:36:20;6.77;86.77
71206;SHT31;58935;54.498;18.544;2023-12-20T00:38:45;6.74;86.49
71206;SHT31;58935;54.498;18.544;2023-12-20T00:41:11;6.70;86.16
71206;SHT31;58935;54.498;18.544;2023-12-20T00:43:36;6.66;85.81
71206;SHT31;58935;54.498;18.544;2023-12-20T00:46:01;6.62;85.67
71206;SHT31;58935;54.498;18.544;2023-12-20T00:48:27;6.61;85.66
71206;SHT31;58935;54.498;18.544;2023-12-20T00:50:55;6.57;85.24
71206;SHT31;58935;54.498;18.544;2023-12-20T00:53:20;6.56;85.21
71206;SHT31;58935;54.498;18.544;2023-12-20T00:55:46;6.53;85.20
71206;SHT31;58935;54.498;18.544;2023-12-20T00:58:11;6.53;85.06
71206;SHT31;58935;54.498;18.544;2023-12-20T01:00:36;6.52;84.87
71206;SHT31;58935;54.498;18.544;2023-12-20T01:03:02;6.50;84.68
71206;SHT31;58935;54.498;18.544;2023-12-20T01:05:27;6.48;84.64
71206;SHT31;58935;54.498;18.544;2023-12-20T01:07:53;6.44;84.13
71206;SHT31;58935;54.498;18.544;2023-12-20T01:10:19;6.39;83.79
71206;SHT31;58935;54.498;18.544;2023-12-20T01:12:47;6.37;83.94
71206;SHT31;58935;54.498;18.544;2023-12-20T01:15:12;6.34;83.99
71206;SHT31;58935;54.498;18.544;2023-12-20T01:17:39;6.31;83.96
71206;SHT31;58935;54.498;18.544;2023-12-20T01:20:05;6.27;83.89
71206;SHT31;58935;54.498;18.544;2023-12-20T01:22:31;6.24;83.87
71206;SHT31;58935;54.498;18.544;2023-12-20T01:24:56;6.18;83.75
71206;SHT31;58935;54.498;18.544;2023-12-20T01:27:22;6.17;83.79
71206;SHT31;58935;54.498;18.544;2023-12-20T01:29:47;6.14;83.57
71206;SHT31;58935;54.498;18.544;2023-12-20T01:32:12;6.13;83.60
71206;SHT31;58935;54.498;18.544;2023-12-20T01:34:38;6.11;83.57
71206;SHT31;58935;54.498;18.544;2023-12-20T01:37:03;6.06;83.64
71206;SHT31;58935;54.498;18.544;2023-12-20T01:39:29;6.04;83.74
71206;SHT31;58935;54.498;18.544;2023-12-20T01:41:54;6.01;83.79
71206;SHT31;58935;54.498;18.544;2023-12-20T01:44:20;5.99;83.84
71206;SHT31;58935;54.498;18.544;2023-12-20T01:46:45;5.96;83.81
71206;SHT31;58935;54.498;18.544;2023-12-20T01:49:12;5.93;83.82
71206;SHT31;58935;54.498;18.544;2023-12-20T01:51:37;5.89;83.86
71206;SHT31;58935;54.498;18.544;2023-12-20T01:54:03;5.83;83.83
71206;SHT31;58935;54.498;18.544;2023-12-20T01:56:34;5.82;83.92
71206;SHT31;58935;54.498;18.544;2023-12-20T01:58:59;5.79;83.99
71206;SHT31;58935;54.498;18.544;2023-12-20T02:01:25;5.78;84.02
71206;SHT31;58935;54.498;18.544;2023-12-20T02:03:53;5.75;84.07
71206;SHT31;58935;54.498;18.544;2023-12-20T02:06:19;5.74;84.06
71206;SHT31;58935;54.498;18.544;2023-12-20T02:08:48;5.70;84.04
71206;SHT31;58935;54.498;18.544;2023-12-20T02:11:15;5.67;84.04
71206;SHT31;58935;54.498;18.544;2023-12-20T02:13:40;5.65;84.02
71206;SHT31;58935;54.498;18.544;2023-12-20T02:16:06;5.65;84.07
71206;SHT31;58935;54.498;18.544;2023-12-20T02:18:36;5.63;84.04
71206;SHT31;58935;54.498;18.544;2023-12-20T02:21:03;5.63;84.09
71206;SHT31;58935;54.498;18.544;2023-12-20T02:23:30;5.61;84.03
71206;SHT31;58935;54.498;18.544;2023-12-20T02:25:55;5.59;84.01
71206;SHT31;58935;54.498;18.544;2023-12-20T02:28:21;5.59;84.04
71206;SHT31;58935;54.498;18.544;2023-12-20T02:30:47;5.59;84.08
71206;SHT31;58935;54.498;18.544;2023-12-20T02:33:14;5.58;84.09
71206;SHT31;58935;54.498;18.544;2023-12-20T02:35:40;5.57;84.14
71206;SHT31;58935;54.498;18.544;2023-12-20T02:38:06;5.57;84.22
71206;SHT31;58935;54.498;18.544;2023-12-20T02:40:31;5.59;84.29
71206;SHT31;58935;54.498;18.544;2023-12-20T02:42:57;5.61;84.36
71206;SHT31;58935;54.498;18.544;2023-12-20T02:45:26;5.64;84.36
71206;SHT31;58935;54.498;18.544;2023-12-20T02:47:52;5.65;84.30
71206;SHT31;58935;54.498;18.544;2023-12-20T02:50:17;5.67;84.38
71206;SHT31;58935;54.498;18.544;2023-12-20T02:52:45;5.68;84.34
71206;SHT31;58935;54.498;18.544;2023-12-20T02:55:13;5.71;84.28
71206;SHT31;58935;54.498;18.544;2023-12-20T02:57:38;5.73;84.19
71206;SHT31;58935;54.498;18.544;2023-12-20T03:00:07;5.74;84.07
71206;SHT31;58935;54.498;18.544;2023-12-20T03:02:36;5.74;83.89
71206;SHT31;58935;54.498;18.544;2023-12-20T03:05:04;5.72;83.65
71206;SHT31;58935;54.498;18.544;2023-12-20T03:07:29;5.73;83.61
71206;SHT31;58935;54.498;18.544;2023-12-20T03:09:54;5.73;83.51
71206;SHT31;58935;54.498;18.544;2023-12-20T03:12:20;5.72;83.38
71206;SHT31;58935;54.498;18.544;2023-12-20T03:14:45;5.72;83.19
71206;SHT31;58935;54.498;18.544;2023-12-20T03:17:10;5.72;82.87
71206;SHT31;58935;54.498;18.544;2023-12-20T03:19:36;5.72;82.80
71206;SHT31;58935;54.498;18.544;2023-12-20T03:22:01;5.72;82.87
71206;SHT31;58935;54.498;18.544;2023-12-20T03:24:27;5.73;83.00
71206;SHT31;58935;54.498;18.544;2023-12-20T03:26:53;5.72;82.99
71206;SHT31;58935;54.498;18.544;2023-12-20T03:29:21;5.72;82.59
71206;SHT31;58935;54.498;18.544;2023-12-20T03:31:46;5.70;82.29
71206;SHT31;58935;54.498;18.544;2023-12-20T03:34:11;5.67;82.13
71206;SHT31;58935;54.498;18.544;2023-12-20T03:36:37;5.66;82.26
71206;SHT31;58935;54.498;18.544;2023-12-20T03:39:02;5.64;82.33
71206;SHT31;58935;54.498;18.544;2023-12-20T03:41:28;5.62;82.40
71206;SHT31;58935;54.498;18.544;2023-12-20T03:43:53;5.60;82.40
71206;SHT31;58935;54.498;18.544;2023-12-20T03:46:19;5.56;82.44
71206;SHT31;58935;54.498;18.544;2023-12-20T03:48:44;5.54;82.63
71206;SHT31;58935;54.498;18.544;2023-12-20T03:51:09;5.51;82.71
71206;SHT31;58935;54.498;18.544;2023-12-20T03:53:34;5.51;82.74
71206;SHT31;58935;54.498;18.544;2023-12-20T03:56:00;5.49;82.78
71206;SHT31;58935;54.498;18.544;2023-12-20T03:58:27;5.46;82.78
71206;SHT31;58935;54.498;18.544;2023-12-20T05:41:59;4.70;83.33
71206;SHT31;58935;54.498;18.544;2023-12-20T05:44:24;4.69;83.30
71206;SHT31;58935;54.498;18.544;2023-12-20T05:46:50;4.67;83.33
71206;SHT31;58935;54.498;18.544;2023-12-20T05:49:15;4.66;83.31
71206;SHT31;58935;54.498;18.544;2023-12-20T05:51:41;4.66;83.30
71206;SHT31;58935;54.498;18.544;2023-12-20T05:54:07;4.64;83.28
71206;SHT31;58935;54.498;18.544;2023-12-20T05:56:34;4.62;83.30
71206;SHT31;58935;54.498;18.544;2023-12-20T05:59:01;4.61;83.35
71206;SHT31;58935;54.498;18.544;2023-12-20T06:01:27;4.61;83.41
71206;SHT31;58935;54.498;18.544;2023-12-20T06:03:52;4.61;83.43
71206;SHT31;58935;54.498;18.544;2023-12-20T06:06:17;4.61;83.31
71206;SHT31;58935;54.498;18.544;2023-12-20T06:08:43;4.58;83.30
71206;SHT31;58935;54.498;18.544;2023-12-20T06:11:08;4.56;83.38
71206;SHT31;58935;54.498;18.544;2023-12-20T06:13:36;4.54;83.40
71206;SHT31;58935;54.498;18.544;2023-12-20T06:16:03;4.52;83.40
71206;SHT31;58935;54.498;18.544;2023-12-20T06:18:30;4.51;83.41
71206;SHT31;58935;54.498;18.544;2023-12-20T06:20:55;4.49;83.45
71206;SHT31;58935;54.498;18.544;2023-12-20T06:23:20;4.48;83.43
71206;SHT31;58935;54.498;18.544;2023-12-20T06:25:45;4.47;83.41
71206;SHT31;58935;54.498;18.544;2023-12-20T06:28:11;4.46;83.39
71206;SHT31;58935;54.498;18.544;2023-12-20T06:30:39;4.45;83.40
71206;SHT31;58935;54.498;18.544;2023-12-20T06:33:04;4.44;83.49
71206;SHT31;58935;54.498;18.544;2023-12-20T06:35:31;4.42;83.52
71206;SHT31;58935;54.498;18.544;2023-12-20T06:37:57;4.42;83.57
71206;SHT31;58935;54.498;18.544;2023-12-20T06:40:23;4.41;83.58
71206;SHT31;58935;54.498;18.544;2023-12-20T06:42:51;4.41;83.60
71206;SHT31;58935;54.498;18.544;2023-12-20T06:45:16;4.40;83.62
71206;SHT31;58935;54.498;18.544;2023-12-20T06:47:42;4.41;83.61
71206;SHT31;58935;54.498;18.544;2023-12-20T06:50:07;4.40;83.61
71206;SHT31;58935;54.498;18.544;2023-12-20T06:52:34;4.40;83.62
71206;SHT31;58935;54.498;18.544;2023-12-20T06:55:00;4.40;83.70
71206;SHT31;58935;54.498;18.544;2023-12-20T06:57:26;4.38;83.70
71206;SHT31;58935;54.498;18.544;2023-12-20T06:59:51;4.39;83.71
71206;SHT31;58935;54.498;18.544;2023-12-20T07:02:17;4.39;83.71
71206;SHT31;58935;54.498;18.544;2023-12-20T07:04:42;4.38;83.70
71206;SHT31;58935;54.498;18.544;2023-12-20T07:07:08;4.37;83.70
71206;SHT31;58935;54.498;18.544;2023-12-20T07:09:33;4.38;83.67
71206;SHT31;58935;54.498;18.544;2023-12-20T07:11:59;4.37;83.61
71206;SHT31;58935;54.498;18.544;2023-12-20T07:14:24;4.37;83.50
71206;SHT31;58935;54.498;18.544;2023-12-20T07:16:50;4.36;83.49
71206;SHT31;58935;54.498;18.544;2023-12-20T07:19:15;4.35;83.45
71206;SHT31;58935;54.498;18.544;2023-12-20T07:21:41;4.34;83.35
71206;SHT31;58935;54.498;18.544;2023-12-20T07:24:06;4.34;83.30
71206;SHT31;58935;54.498;18.544;2023-12-20T07:26:31;4.33;83.30
71206;SHT31;58935;54.498;18.544;2023-12-20T07:28:57;4.33;83.20
71206;SHT31;58935;54.498;18.544;2023-12-20T07:31:23;4.32;83.18
71206;SHT31;58935;54.498;18.544;2023-12-20T07:33:49;4.31;83.12
71206;SHT31;58935;54.498;18.544;2023-12-20T07:36:14;4.30;83.06
71206;SHT31;58935;54.498;18.544;2023-12-20T07:38:40;4.29;83.05
71206;SHT31;58935;54.498;18.544;2023-12-20T07:41:09;4.28;83.08
71206;SHT31;58935;54.498;18.544;2023-12-20T07:43:34;4.28;82.97
71206;SHT31;58935;54.498;18.544;2023-12-20T07:46:03;4.28;82.90
71206;SHT31;58935;54.498;18.544;2023-12-20T07:48:30;4.28;82.86
71206;SHT31;58935;54.498;18.544;2023-12-20T07:50:55;4.28;82.81
71206;SHT31;58935;54.498;18.544;2023-12-20T07:53:21;4.28;82.78
71206;SHT31;58935;54.498;18.544;2023-12-20T07:55:49;4.29;82.73
71206;SHT31;58935;54.498;18.544;2023-12-20T07:58:14;4.28;82.67
71206;SHT31;58935;54.498;18.544;2023-12-20T08:00:39;4.29;82.57
71206;SHT31;58935;54.498;18.544;2023-12-20T08:03:05;4.30;82.50
71206;SHT31;58935;54.498;18.544;2023-12-20T08:05:30;4.33;82.51
71206;SHT31;58935;54.498;18.544;2023-12-20T08:07:55;4.33;82.41
71206;SHT31;58935;54.498;18.544;2023-12-20T08:10:21;4.36;82.32
71206;SHT31;58935;54.498;18.544;2023-12-20T08:12:46;4.38;82.30
71206;SHT31;58935;54.498;18.544;2023-12-20T08:15:11;4.41;82.09
71206;SHT31;58935;54.498;18.544;2023-12-20T08:17:37;4.44;81.99
71206;SHT31;58935;54.498;18.544;2023-12-20T08:20:02;4.47;81.94
71206;SHT31;58935;54.498;18.544;2023-12-20T08:22:28;4.49;81.82
71206;SHT31;58935;54.498;18.544;2023-12-20T08:24:53;4.54;81.80
71206;SHT31;58935;54.498;18.544;2023-12-20T08:27:18;4.60;81.64
71206;SHT31;58935;54.498;18.544;2023-12-20T08:29:44;4.66;81.54
71206;SHT31;58935;54.498;18.544;2023-12-20T08:32:10;4.74;81.55
71206;SHT31;58935;54.498;18.544;2023-12-20T08:34:35;4.81;81.24
71206;SHT31;58935;54.498;18.544;2023-12-20T08:37:01;4.88;81.08
71206;SHT31;58935;54.498;18.544;2023-12-20T08:39:26;4.94;80.90
71206;SHT31;58935;54.498;18.544;2023-12-20T08:41:52;5.01;80.82
71206;SHT31;58935;54.498;18.544;2023-12-20T08:44:17;5.08;80.90
71206;SHT31;58935;54.498;18.544;2023-12-20T08:46:43;5.16;80.71
71206;SHT31;58935;54.498;18.544;2023-12-20T08:49:10;5.23;80.61
71206;SHT31;58935;54.498;18.544;2023-12-20T08:51:36;5.30;80.47
71206;SHT31;58935;54.498;18.544;2023-12-20T08:54:05;5.38;80.21
71206;SHT31;58935;54.498;18.544;2023-12-20T08:56:32;5.45;79.94
71206;SHT31;58935;54.498;18.544;2023-12-20T08:59:01;5.48;79.48
71206;SHT31;58935;54.498;18.544;2023-12-20T09:01:26;5.53;79.55
71206;SHT31;58935;54.498;18.544;2023-12-20T09:03:51;5.55;79.48
71206;SHT31;58935;54.498;18.544;2023-12-20T09:06:17;5.56;78.94
71206;SHT31;58935;54.498;18.544;2023-12-20T09:08:42;5.58;79.00
71206;SHT31;58935;54.498;18.544;2023-12-20T09:11:07;5.59;79.02
71206;SHT31;58935;54.498;18.544;2023-12-20T09:13:33;5.60;78.97
71206;SHT31;58935;54.498;18.544;2023-12-20T09:15:58;5.59;78.75
71206;SHT31;58935;54.498;18.544;2023-12-20T09:18:24;5.57;78.86
71206;SHT31;58935;54.498;18.544;2023-12-20T09:20:49;5.57;78.87
71206;SHT31;58935;54.498;18.544;2023-12-20T09:23:15;5.57;78.95
71206;SHT31;58935;54.498;18.544;2023-12-20T09:25:40;5.57;78.89
71206;SHT31;58935;54.498;18.544;2023-12-20T09:28:06;5.57;78.72
71206;SHT31;58935;54.498;18.544;2023-12-20T09:30:31;5.59;78.52
71206;SHT31;58935;54.498;18.544;2023-12-20T09:32:57;5.61;78.28
71206;SHT31;58935;54.498;18.544;2023-12-20T09:35:22;5.64;78.28
71206;SHT31;58935;54.498;18.544;2023-12-20T09:37:49;5.69;78.52
71206;SHT31;58935;54.498;18.544;2023-12-20T09:40:18;5.73;78.36
71206;SHT31;58935;54.498;18.544;2023-12-20T09:45:15;5.79;78.00
71206;SHT31;58935;54.498;18.544;2023-12-20T09:47:45;5.83;78.25
71206;SHT31;58935;54.498;18.544;2023-12-20T09:50:13;5.88;78.20
71206;SHT31;58935;54.498;18.544;2023-12-20T09:52:39;5.93;77.97
71206;SHT31;58935;54.498;18.544;2023-12-20T09:55:05;5.96;77.70
71206;SHT31;58935;54.498;18.544;2023-12-20T09:57:32;6.00;77.86
71206;SHT31;58935;54.498;18.544;2023-12-20T09:59:58;6.03;77.74
71206;SHT31;58935;54.498;18.544;2023-12-20T10:02:24;6.03;77.44
71206;SHT31;58935;54.498;18.544;2023-12-20T10:04:52;6.03;77.45
71206;SHT31;58935;54.498;18.544;2023-12-20T10:07:17;6.01;77.39
71206;SHT31;58935;54.498;18.544;2023-12-20T10:09:43;6.00;77.52
71206;SHT31;58935;54.498;18.544;2023-12-20T10:12:09;5.97;77.30
71206;SHT31;58935;54.498;18.544;2023-12-20T10:14:34;5.95;77.09
71206;SHT31;58935;54.498;18.544;2023-12-20T10:17:01;5.93;77.15
71206;SHT31;58935;54.498;18.544;2023-12-20T10:19:28;5.90;77.28
71206;SHT31;58935;54.498;18.544;2023-12-20T10:21:54;5.89;77.33
71206;SHT31;58935;54.498;18.544;2023-12-20T10:24:19;5.88;77.44
71206;SHT31;58935;54.498;18.544;2023-12-20T10:26:45;5.87;77.49
71206;SHT31;58935;54.498;18.544;2023-12-20T10:29:10;5.88;77.33
71206;SHT31;58935;54.498;18.544;2023-12-20T10:31:38;5.87;77.34
71206;SHT31;58935;54.498;18.544;2023-12-20T10:34:04;5.88;77.56
71206;SHT31;58935;54.498;18.544;2023-12-20T10:36:30;5.87;77.41
71206;SHT31;58935;54.498;18.544;2023-12-20T10:38:57;5.87;77.51
71206;SHT31;58935;54.498;18.544;2023-12-20T10:41:24;5.86;77.54
71206;SHT31;58935;54.498;18.544;2023-12-20T10:43:56;5.85;77.62
71206;SHT31;58935;54.498;18.544;2023-12-20T10:46:24;5.85;77.76
71206;SHT31;58935;54.498;18.544;2023-12-20T10:48:51;5.85;77.71
71206;SHT31;58935;54.498;18.544;2023-12-20T10:51:19;5.86;77.88
71206;SHT31;58935;54.498;18.544;2023-12-20T10:53:46;5.88;78.01
71206;SHT31;58935;54.498;18.544;2023-12-20T10:56:15;5.88;78.02
71206;SHT31;58935;54.498;18.544;2023-12-20T10:58:42;5.89;77.98
71206;SHT31;58935;54.498;18.544;2023-12-20T11:01:08;5.90;78.15
71206;SHT31;58935;54.498;18.544;2023-12-20T11:03:35;5.93;78.18
71206;SHT31;58935;54.498;18.544;2023-12-20T11:06:05;5.95;78.19
71206;SHT31;58935;54.498;18.544;2023-12-20T11:11:14;5.99;78.06
71206;SHT31;58935;54.498;18.544;2023-12-20T11:13:53;6.02;78.12
71206;SHT31;58935;54.498;18.544;2023-12-20T11:16:22;6.05;78.17
71206;SHT31;58935;54.498;18.544;2023-12-20T11:18:47;6.06;78.20
71206;SHT31;58935;54.498;18.544;2023-12-20T11:21:15;6.08;78.05
71206;SHT31;58935;54.498;18.544;2023-12-20T11:23:43;6.09;78.04
71206;SHT31;58935;54.498;18.544;2023-12-20T11:26:09;6.12;78.16
71206;SHT31;58935;54.498;18.544;2023-12-20T11:28:34;6.14;77.94
71206;SHT31;58935;54.498;18.544;2023-12-20T11:31:00;6.15;77.98
71206;SHT31;58935;54.498;18.544;2023-12-20T11:33:30;6.16;78.20
71206;SHT31;58935;54.498;18.544;2023-12-20T11:36:03;6.16;78.35
71206;SHT31;58935;54.498;18.544;2023-12-20T11:41:01;6.16;78.63
71206;SHT31;58935;54.498;18.544;2023-12-20T11:43:29;6.18;78.84
71206;SHT31;58935;54.498;18.544;2023-12-20T11:45:56;6.18;79.03
71206;SHT31;58935;54.498;18.544;2023-12-20T11:51:02;6.24;78.96
71206;SHT31;58935;54.498;18.544;2023-12-20T11:53:30;6.26;79.01
71206;SHT31;58935;54.498;18.544;2023-12-20T11:58:36;6.30;79.07
71206;SHT31;58935;54.498;18.544;2023-12-20T12:06:16;6.33;78.91
71206;SHT31;58935;54.498;18.544;2023-12-20T12:11:15;6.34;79.10
71206;SHT31;58935;54.498;18.544;2023-12-20T12:13:43;6.36;79.20
71206;SHT31;58935;54.498;18.544;2023-12-20T12:16:09;6.37;79.32
71206;SHT31;58935;54.498;18.544;2023-12-20T12:18:35;6.39;79.35
71206;SHT31;58935;54.498;18.544;2023-12-20T12:21:01;6.41;79.36
71206;SHT31;58935;54.498;18.544;2023-12-20T12:23:29;6.41;79.21
71206;SHT31;58935;54.498;18.544;2023-12-20T12:25:56;6.40;79.33
71206;SHT31;58935;54.498;18.544;2023-12-20T12:28:25;6.40;79.26
71206;SHT31;58935;54.498;18.544;2023-12-20T12:33:25;6.36;79.37
71206;SHT31;58935;54.498;18.544;2023-12-20T12:35:53;6.36;79.41
71206;SHT31;58935;54.498;18.544;2023-12-20T12:38:20;6.30;79.30
71206;SHT31;58935;54.498;18.544;2023-12-20T12:40:46;6.27;79.58
71206;SHT31;58935;54.498;18.544;2023-12-20T12:43:12;6.25;79.59
71206;SHT31;58935;54.498;18.544;2023-12-20T12:45:37;6.23;79.79
71206;SHT31;58935;54.498;18.544;2023-12-20T12:48:05;6.21;79.84
71206;SHT31;58935;54.498;18.544;2023-12-20T12:50:31;6.19;79.75
71206;SHT31;58935;54.498;18.544;2023-12-20T12:52:57;6.18;79.88
71206;SHT31;58935;54.498;18.544;2023-12-20T12:55:22;6.18;80.12
71206;SHT31;58935;54.498;18.544;2023-12-20T12:57:47;6.19;80.11
71206;SHT31;58935;54.498;18.544;2023-12-20T13:00:15;6.20;80.10
71206;SHT31;58935;54.498;18.544;2023-12-20T13:02:44;6.18;80.18
71206;SHT31;58935;54.498;18.544;2023-12-20T13:05:09;6.16;80.17
71206;SHT31;58935;54.498;18.544;2023-12-20T13:07:35;6.13;80.13
71206;SHT31;58935;54.498;18.544;2023-12-20T13:10:02;6.10;80.27
71206;SHT31;58935;54.498;18.544;2023-12-20T13:12:29;6.06;80.21
71206;SHT31;58935;54.498;18.544;2023-12-20T13:14:54;6.05;80.31
71206;SHT31;58935;54.498;18.544;2023-12-20T13:17:20;6.03;80.41
71206;SHT31;58935;54.498;18.544;2023-12-20T13:19:45;6.01;80.43
71206;SHT31;58935;54.498;18.544;2023-12-20T13:22:11;6.02;80.37
71206;SHT31;58935;54.498;18.544;2023-12-20T13:24:36;6.02;80.41
71206;SHT31;58935;54.498;18.544;2023-12-20T13:27:02;6.01;80.48
71206;SHT31;58935;54.498;18.544;2023-12-20T13:29:27;6.03;80.55
71206;SHT31;58935;54.498;18.544;2023-12-20T13:31:52;6.03;80.37
71206;SHT31;58935;54.498;18.544;2023-12-20T13:34:18;6.04;80.44
71206;SHT31;58935;54.498;18.544;2023-12-20T13:36:44;6.05;80.35
71206;SHT31;58935;54.498;18.544;2023-12-20T13:39:12;6.04;80.29
71206;SHT31;58935;54.498;18.544;2023-12-20T13:41:38;6.05;80.21
71206;SHT31;58935;54.498;18.544;2023-12-20T13:44:04;6.05;80.33
71206;SHT31;58935;54.498;18.544;2023-12-20T13:46:29;6.07;80.44
71206;SHT31;58935;54.498;18.544;2023-12-20T13:48:55;6.07;80.24
71206;SHT31;58935;54.498;18.544;2023-12-20T13:51:20;6.08;80.14
71206;SHT31;58935;54.498;18.544;2023-12-20T13:53:46;6.07;79.85
71206;SHT31;58935;54.498;18.544;2023-12-20T13:56:13;6.06;79.90
71206;SHT31;58935;54.498;18.544;2023-12-20T13:58:39;6.04;79.59
71206;SHT31;58935;54.498;18.544;2023-12-20T14:01:09;6.03;79.61
71206;SHT31;58935;54.498;18.544;2023-12-20T14:03:35;6.02;79.47
71206;SHT31;58935;54.498;18.544;2023-12-20T14:06:01;6.00;79.31
71206;SHT31;58935;54.498;18.544;2023-12-20T14:08:26;5.98;79.27
71206;SHT31;58935;54.498;18.544;2023-12-20T14:10:52;5.96;79.03
71206;SHT31;58935;54.498;18.544;2023-12-20T14:13:18;5.95;79.21
71206;SHT31;58935;54.498;18.544;2023-12-20T14:15:43;5.95;79.39
71206;SHT31;58935;54.498;18.544;2023-12-20T14:18:09;5.93;79.57
71206;SHT31;58935;54.498;18.544;2023-12-20T14:20:35;5.91;79.60
71206;SHT31;58935;54.498;18.544;2023-12-20T14:23:02;5.89;79.79
71206;SHT31;58935;54.498;18.544;2023-12-20T14:25:28;5.88;79.97
71206;SHT31;58935;54.498;18.544;2023-12-20T14:27:54;5.87;80.07
71206;SHT31;58935;54.498;18.544;2023-12-20T14:30:24;5.85;80.11
71206;SHT31;58935;54.498;18.544;2023-12-20T14:32:50;5.83;80.10
71206;SHT31;58935;54.498;18.544;2023-12-20T14:35:15;5.80;80.16
71206;SHT31;58935;54.498;18.544;2023-12-20T14:37:43;5.77;80.21
71206;SHT31;58935;54.498;18.544;2023-12-20T14:40:10;5.75;80.27
71206;SHT31;58935;54.498;18.544;2023-12-20T14:42:39;5.75;80.35
71206;SHT31;58935;54.498;18.544;2023-12-20T14:45:05;5.76;80.40
71206;SHT31;58935;54.498;18.544;2023-12-20T14:47:31;5.78;80.28
71206;SHT31;58935;54.498;18.544;2023-12-20T14:49:56;5.79;80.20
71206;SHT31;58935;54.498;18.544;2023-12-20T14:52:21;5.80;80.10
71206;SHT31;58935;54.498;18.544;2023-12-20T14:54:48;5.80;80.09
71206;SHT31;58935;54.498;18.544;2023-12-20T14:57:13;5.80;80.01
71206;SHT31;58935;54.498;18.544;2023-12-20T14:59:39;5.80;80.10
71206;SHT31;58935;54.498;18.544;2023-12-20T15:02:04;5.81;80.23
71206;SHT31;58935;54.498;18.544;2023-12-20T15:04:32;5.83;80.32
71206;SHT31;58935;54.498;18.544;2023-12-20T15:06:58;5.84;80.34
71206;SHT31;58935;54.498;18.544;2023-12-20T15:09:23;5.85;80.41
71206;SHT31;58935;54.498;18.544;2023-12-20T15:11:51;5.86;80.43
71206;SHT31;58935;54.498;18.544;2023-12-20T15:14:17;5.87;80.50
71206;SHT31;58935;54.498;18.544;2023-12-20T15:16:45;5.88;80.58
71206;SHT31;58935;54.498;18.544;2023-12-20T15:19:12;5.89;80.69
71206;SHT31;58935;54.498;18.544;2023-12-20T15:21:37;5.89;80.80
71206;SHT31;58935;54.498;18.544;2023-12-20T15:24:07;5.89;81.04
71206;SHT31;58935;54.498;18.544;2023-12-20T15:26:40;5.89;81.15
71206;SHT31;58935;54.498;18.544;2023-12-20T15:29:06;5.90;81.30
71206;SHT31;58935;54.498;18.544;2023-12-20T15:31:31;5.91;81.30
71206;SHT31;58935;54.498;18.544;2023-12-20T15:33:58;5.91;81.31
71206;SHT31;58935;54.498;18.544;2023-12-20T15:36:26;5.91;81.41
71206;SHT31;58935;54.498;18.544;2023-12-20T15:38:52;5.93;81.43
71206;SHT31;58935;54.498;18.544;2023-12-20T15:41:18;5.91;81.40
71206;SHT31;58935;54.498;18.544;2023-12-20T15:43:44;5.92;81.40
71206;SHT31;58935;54.498;18.544;2023-12-20T15:46:10;5.91;81.40
71206;SHT31;58935;54.498;18.544;2023-12-20T15:48:35;5.91;81.40
71206;SHT31;58935;54.498;18.544;2023-12-20T15:53:30;5.95;81.64
71206;SHT31;58935;54.498;18.544;2023-12-20T15:55:55;5.95;81.71
71206;SHT31;58935;54.498;18.544;2023-12-20T15:58:23;5.94;81.80
71206;SHT31;58935;54.498;18.544;2023-12-20T16:00:48;5.91;81.88
71206;SHT31;58935;54.498;18.544;2023-12-20T16:03:14;5.87;82.00
71206;SHT31;58935;54.498;18.544;2023-12-20T16:05:39;5.82;81.89
71206;SHT31;58935;54.498;18.544;2023-12-20T16:08:05;5.73;81.64
71206;SHT31;58935;54.498;18.544;2023-12-20T16:10:31;5.63;81.22
71206;SHT31;58935;54.498;18.544;2023-12-20T16:12:56;5.52;81.07
71206;SHT31;58935;54.498;18.544;2023-12-20T16:15:22;5.44;81.39
71206;SHT31;58935;54.498;18.544;2023-12-20T16:17:47;5.38;81.69
71206;SHT31;58935;54.498;18.544;2023-12-20T16:20:15;5.31;81.69
71206;SHT31;58935;54.498;18.544;2023-12-20T16:22:40;5.25;81.82
71206;SHT31;58935;54.498;18.544;2023-12-20T16:25:06;5.20;81.99
71206;SHT31;58935;54.498;18.544;2023-12-20T16:27:36;5.15;81.92
71206;SHT31;58935;54.498;18.544;2023-12-20T16:30:03;5.08;81.97
71206;SHT31;58935;54.498;18.544;2023-12-20T16:32:32;5.00;81.92
71206;SHT31;58935;54.498;18.544;2023-12-20T16:34:58;4.91;81.88
71206;SHT31;58935;54.498;18.544;2023-12-20T16:37:24;4.85;82.01
71206;SHT31;58935;54.498;18.544;2023-12-20T16:39:50;4.77;82.06
71206;SHT31;58935;54.498;18.544;2023-12-20T16:42:16;4.72;82.33
71206;SHT31;58935;54.498;18.544;2023-12-20T16:44:42;4.69;82.61
71206;SHT31;58935;54.498;18.544;2023-12-20T16:47:07;4.67;82.84
71206;SHT31;58935;54.498;18.544;2023-12-20T16:49:33;4.65;83.02
71206;SHT31;58935;54.498;18.544;2023-12-20T16:51:58;4.64;83.12
71206;SHT31;58935;54.498;18.544;2023-12-20T16:54:25;4.63;83.23
71206;SHT31;58935;54.498;18.544;2023-12-20T16:56:51;4.63;83.66
71206;SHT31;58935;54.498;18.544;2023-12-20T16:59:17;4.61;83.89
71206;SHT31;58935;54.498;18.544;2023-12-20T17:01:43;4.59;83.99
71206;SHT31;58935;54.498;18.544;2023-12-20T17:04:11;4.57;84.16
71206;SHT31;58935;54.498;18.544;2023-12-20T17:06:36;4.55;84.11
71206;SHT31;58935;54.498;18.544;2023-12-20T17:09:02;4.54;84.43
71206;SHT31;58935;54.498;18.544;2023-12-20T17:11:28;4.52;84.51
71206;SHT31;58935;54.498;18.544;2023-12-20T17:13:53;4.51;84.43
71206;SHT31;58935;54.498;18.544;2023-12-20T17:16:19;4.52;84.25
71206;SHT31;58935;54.498;18.544;2023-12-20T17:18:44;4.52;84.10
71206;SHT31;58935;54.498;18.544;2023-12-20T17:21:14;4.54;83.76
71206;SHT31;58935;54.498;18.544;2023-12-20T17:23:41;4.57;83.01
71206;SHT31;58935;54.498;18.544;2023-12-20T17:26:06;4.61;82.67
71206;SHT31;58935;54.498;18.544;2023-12-20T17:28:32;4.61;82.31
71206;SHT31;58935;54.498;18.544;2023-12-20T17:30:57;4.61;82.03